createdAt,value
2023-02-24T00:00:32.260Z,15.63
2023-02-24T00:03:05.711Z,13.85
2023-02-24T00:05:36.620Z,15.30
2023-02-24T00:08:03.710Z,14.65
2023-02-24T00:10:30.860Z,14.88
2023-02-24T00:12:57.955Z,14.68
2023-02-24T00:15:25.030Z,14.57
2023-02-24T00:17:52.095Z,13.88
2023-02-24T00:20:19.269Z,12.57
2023-02-24T00:22:46.395Z,11.25
2023-02-24T00:25:14.569Z,10.80
2023-02-24T00:27:42.519Z,10.55
2023-02-24T00:30:11.847Z,10.52
2023-02-24T00:32:39.121Z,9.57
2023-02-24T00:35:06.612Z,9.15
2023-02-24T00:37:33.669Z,9.30
2023-02-24T00:40:00.732Z,9.57
2023-02-24T00:42:28.279Z,9.23
2023-02-24T00:44:55.524Z,10.13
2023-02-24T00:47:22.569Z,9.63
2023-02-24T00:49:50.225Z,9.38
2023-02-24T00:52:20.563Z,9.38
2023-02-24T00:54:48.267Z,10.23
2023-02-24T00:57:17.766Z,9.10
2023-02-24T00:59:47.484Z,10.18
2023-02-24T01:02:14.858Z,10.20
2023-02-24T01:04:44.292Z,10.05
2023-02-24T01:07:11.691Z,9.52
2023-02-24T01:09:39.177Z,9.93
2023-02-24T01:12:26.286Z,10.55
2023-02-24T01:14:53.571Z,10.10
2023-02-24T01:17:20.703Z,10.10
2023-02-24T01:19:49.375Z,9.60
2023-02-24T01:22:17.072Z,10.13
2023-02-24T01:24:44.661Z,10.15
2023-02-24T01:27:12.742Z,9.60
2023-02-24T01:29:39.966Z,9.50
2023-02-24T01:32:14.037Z,9.88
2023-02-24T01:34:42.499Z,9.35
2023-02-24T01:37:10.127Z,8.63
2023-02-24T01:39:37.492Z,9.02
2023-02-24T01:42:06.110Z,10.18
2023-02-24T01:44:33.293Z,9.38
2023-02-24T01:47:01.351Z,9.38
2023-02-24T01:49:35.400Z,9.23
2023-02-24T01:52:05.103Z,10.55
2023-02-24T01:54:42.484Z,9.30
2023-02-24T01:57:16.533Z,9.20
2023-02-24T01:59:44.369Z,9.65
2023-02-24T02:02:11.541Z,9.98
2023-02-24T02:05:02.041Z,9.60
2023-02-24T02:07:29.204Z,9.30
2023-02-24T02:09:56.568Z,9.02
2023-02-24T02:12:24.194Z,9.43
2023-02-24T02:14:52.407Z,10.90
2023-02-24T02:17:33.175Z,10.18
2023-02-24T02:20:22.713Z,8.70
2023-02-24T02:22:55.965Z,8.77
2023-02-24T02:25:41.110Z,8.65
2023-02-24T02:28:37.612Z,8.40
2023-02-24T02:31:25.892Z,8.63
2023-02-24T02:34:11.908Z,8.55
2023-02-24T02:36:57.829Z,8.98
2023-02-24T02:39:32.922Z,8.23
2023-02-24T02:42:14.279Z,8.35
2023-02-24T02:44:47.494Z,8.73
2023-02-24T02:47:18.206Z,8.10
2023-02-24T02:49:46.253Z,9.65
2023-02-24T02:52:15.476Z,8.98
2023-02-24T02:54:45.407Z,8.38
2023-02-24T02:57:13.762Z,8.23
2023-02-24T02:59:49.287Z,8.65
2023-02-24T03:02:18.391Z,8.50
2023-02-24T03:04:47.340Z,8.73
2023-02-24T03:07:14.553Z,8.55
2023-02-24T03:09:42.599Z,8.32
2023-02-24T03:12:11.557Z,9.00
2023-02-24T03:14:39.500Z,7.97
2023-02-24T03:17:07.857Z,9.40
2023-02-24T03:19:38.168Z,8.70
2023-02-24T03:22:12.271Z,9.88
2023-02-24T03:24:40.308Z,8.30
2023-02-24T03:27:14.319Z,8.73
2023-02-24T03:29:41.451Z,10.13
2023-02-24T03:32:17.947Z,11.57
2023-02-24T03:34:58.512Z,10.52
2023-02-24T03:37:26.862Z,11.98
2023-02-24T03:39:54.321Z,13.77
2023-02-24T03:42:21.523Z,12.50
2023-02-24T03:44:48.815Z,12.93
2023-02-24T03:47:16.951Z,12.70
2023-02-24T03:49:44.372Z,13.55
2023-02-24T03:52:29.167Z,14.18
2023-02-24T03:55:00.152Z,13.32
2023-02-24T03:57:54.737Z,13.13
2023-02-24T04:00:25.702Z,13.25
2023-02-24T04:02:57.669Z,12.63
2023-02-24T04:05:27.465Z,13.02
2023-02-24T04:08:04.620Z,12.15
2023-02-24T04:10:34.676Z,13.00
2023-02-24T04:13:22.123Z,13.27
2023-02-24T04:15:50.596Z,12.00
2023-02-24T04:18:21.971Z,12.80
2023-02-24T04:20:53.073Z,13.68
2023-02-24T04:23:24.430Z,12.65
2023-02-24T04:25:52.206Z,12.38
2023-02-24T04:28:21.142Z,12.90
2023-02-24T04:30:49.020Z,12.55
2023-02-24T04:33:16.121Z,12.40
2023-02-24T04:35:45.192Z,12.77
2023-02-24T04:38:12.467Z,12.63
2023-02-24T04:40:40.889Z,13.75
2023-02-24T04:43:08.238Z,13.02
2023-02-24T04:45:35.330Z,13.82
2023-02-24T04:48:02.907Z,13.80
2023-02-24T04:50:36.557Z,14.68
2023-02-24T04:53:09.381Z,14.18
2023-02-24T04:55:40.284Z,15.23
2023-02-24T04:58:08.210Z,15.90
2023-02-24T05:00:35.797Z,15.48
2023-02-24T05:03:04.153Z,16.10
2023-02-24T05:05:33.337Z,16.58
2023-02-24T05:08:03.005Z,15.63
2023-02-24T05:10:30.794Z,17.00
2023-02-24T05:13:03.825Z,17.58
2023-02-24T05:15:33.614Z,17.52
2023-02-24T05:18:01.179Z,18.85
2023-02-24T05:20:47.151Z,17.33
2023-02-24T05:23:14.259Z,17.80
2023-02-24T05:25:42.905Z,17.70
2023-02-24T05:28:10.071Z,16.90
2023-02-24T05:30:38.042Z,17.05
2023-02-24T05:33:07.977Z,18.27
2023-02-24T05:35:36.630Z,19.55
2023-02-24T05:38:04.081Z,20.25
2023-02-24T05:40:31.129Z,20.25
2023-02-24T05:42:58.195Z,29.52
2023-02-24T05:45:30.260Z,22.30
2023-02-24T05:47:57.406Z,23.20
2023-02-24T05:50:26.451Z,23.92
2023-02-24T05:52:55.864Z,23.52
2023-02-24T05:55:23.573Z,24.70
2023-02-24T05:57:50.817Z,23.98
2023-02-24T06:00:18.067Z,24.20
2023-02-24T06:02:49.679Z,24.20
2023-02-24T06:05:25.451Z,23.48
2023-02-24T06:08:05.153Z,23.60
2023-02-24T06:10:35.280Z,23.37
2023-02-24T06:13:02.711Z,22.75
2023-02-24T06:15:29.920Z,24.55
2023-02-24T06:17:57.015Z,24.88
2023-02-24T06:20:26.738Z,26.13
2023-02-24T06:22:59.548Z,25.80
2023-02-24T06:25:29.614Z,24.40
2023-02-24T06:27:56.846Z,24.00
2023-02-24T06:30:24.583Z,24.75
2023-02-24T06:32:52.012Z,24.33
2023-02-24T06:35:19.409Z,25.05
2023-02-24T06:37:46.664Z,26.10
2023-02-24T06:40:17.704Z,25.58
2023-02-24T06:42:56.981Z,25.55
2023-02-24T06:45:24.283Z,26.88
2023-02-24T06:47:51.359Z,26.35
2023-02-24T06:50:20.201Z,26.77
2023-02-24T06:52:47.688Z,27.45
2023-02-24T06:55:26.846Z,26.05
2023-02-24T06:57:57.731Z,25.55
2023-02-24T07:00:37.228Z,25.88
2023-02-24T07:03:14.652Z,27.40
2023-02-24T07:05:50.219Z,27.70
2023-02-24T07:08:18.118Z,26.75
2023-02-24T07:10:45.364Z,28.33
2023-02-24T07:13:13.497Z,28.33
2023-02-24T07:15:48.999Z,27.40
2023-02-24T07:18:19.221Z,26.42
2023-02-24T07:20:46.816Z,27.88
2023-02-24T07:23:15.063Z,29.02
2023-02-24T07:25:43.340Z,28.00
2023-02-24T07:28:19.135Z,28.75
2023-02-24T07:30:46.344Z,26.88
2023-02-24T07:33:14.274Z,28.48
2023-02-24T07:35:42.368Z,28.42
2023-02-24T07:38:09.596Z,28.67
2023-02-24T07:40:37.604Z,27.90
2023-02-24T07:43:06.358Z,26.80
2023-02-24T07:45:33.432Z,27.63
2023-02-24T07:48:01.711Z,27.20
2023-02-24T07:50:32.714Z,28.10
2023-02-24T07:53:00.113Z,28.58
2023-02-24T07:55:31.146Z,28.05
2023-02-24T07:57:58.449Z,27.02
2023-02-24T08:00:28.249Z,29.25
2023-02-24T08:02:56.000Z,26.67
2023-02-24T08:05:24.463Z,28.38
2023-02-24T08:07:52.122Z,28.67
2023-02-24T08:10:26.046Z,29.20
2023-02-24T08:12:56.511Z,30.42
2023-02-24T08:15:33.886Z,29.83
2023-02-24T08:18:01.270Z,28.65
2023-02-24T08:20:35.933Z,29.98
2023-02-24T08:23:06.263Z,28.95
2023-02-24T08:25:36.509Z,28.92
2023-02-24T08:28:08.309Z,28.25
2023-02-24T08:30:39.607Z,28.35
2023-02-24T08:33:07.833Z,27.85
2023-02-24T08:35:35.864Z,27.75
2023-02-24T08:38:07.820Z,26.50
2023-02-24T08:40:35.962Z,25.25
2023-02-24T08:43:25.405Z,17.83
2023-02-24T08:45:56.650Z,16.55
2023-02-24T08:48:50.199Z,16.55
2023-02-24T08:51:23.887Z,14.25
2023-02-24T08:53:53.144Z,14.27
2023-02-24T08:56:24.607Z,14.95
2023-02-24T08:59:21.652Z,13.18
2023-02-24T09:02:04.235Z,14.38
2023-02-24T09:04:34.280Z,12.75
2023-02-24T09:07:11.581Z,11.60
2023-02-24T09:09:42.089Z,10.00
2023-02-24T09:12:10.462Z,10.93
2023-02-24T09:14:38.012Z,9.23
2023-02-24T09:17:06.565Z,9.88
2023-02-24T09:20:01.137Z,9.38
2023-02-24T09:22:32.402Z,8.30
2023-02-24T09:25:26.609Z,7.57
2023-02-24T09:28:08.190Z,8.43
2023-02-24T09:30:49.273Z,8.82
2023-02-24T09:33:21.333Z,7.93
2023-02-24T09:36:12.800Z,8.52
2023-02-24T09:38:58.688Z,8.13
2023-02-24T09:41:58.725Z,9.80
2023-02-24T09:44:38.064Z,10.27
2023-02-24T09:47:10.991Z,10.57
2023-02-24T09:49:56.738Z,9.30
2023-02-24T09:52:43.045Z,8.98
2023-02-24T09:55:27.000Z,9.00
2023-02-24T09:58:43.053Z,9.02
2023-02-24T10:01:23.758Z,9.25
2023-02-24T10:04:18.332Z,9.63
2023-02-24T10:06:47.331Z,9.60
2023-02-24T10:09:36.208Z,10.15
2023-02-24T10:12:17.102Z,9.88
2023-02-24T10:15:14.985Z,10.13
2023-02-24T10:17:47.266Z,10.52
2023-02-24T10:20:23.549Z,10.65
2023-02-24T10:22:52.453Z,10.10
2023-02-24T10:25:23.271Z,10.52
2023-02-24T10:27:57.933Z,9.98
2023-02-24T10:30:43.194Z,10.05
2023-02-24T10:33:18.801Z,9.60
2023-02-24T10:35:45.957Z,8.20
2023-02-24T10:38:13.113Z,8.82
2023-02-24T10:40:56.600Z,7.20
2023-02-24T10:43:30.229Z,6.95
2023-02-24T10:46:07.729Z,7.22
2023-02-24T10:48:42.484Z,7.35
2023-02-24T10:51:19.759Z,7.20
2023-02-24T10:53:53.189Z,8.00
2023-02-24T10:56:38.960Z,7.82
2023-02-24T10:59:25.602Z,7.53
2023-02-24T11:02:09.400Z,7.60
2023-02-24T11:04:58.441Z,7.43
2023-02-24T11:07:33.428Z,7.65
2023-02-24T11:10:11.327Z,7.97
2023-02-24T11:13:10.002Z,7.03
2023-02-24T11:16:06.633Z,7.78
2023-02-24T11:18:34.068Z,7.88
2023-02-24T11:21:02.367Z,8.68
2023-02-24T11:23:35.594Z,8.07
2023-02-24T11:26:04.689Z,7.75
2023-02-24T11:28:40.768Z,7.53
2023-02-24T11:31:14.374Z,7.75
2023-02-24T11:33:44.825Z,7.80
2023-02-24T11:36:20.487Z,6.40
2023-02-24T11:38:47.664Z,7.47
2023-02-24T11:41:20.099Z,7.22
2023-02-24T11:43:50.585Z,8.13
2023-02-24T11:46:22.069Z,6.80
2023-02-24T11:48:56.766Z,8.25
2023-02-24T11:51:28.244Z,7.65
2023-02-24T11:53:59.959Z,7.78
2023-02-24T11:56:36.281Z,7.85
2023-02-24T11:59:19.823Z,7.57
2023-02-24T12:01:46.894Z,6.95
2023-02-24T12:04:29.177Z,7.43
2023-02-24T12:07:11.176Z,7.68
2023-02-24T12:09:40.974Z,7.75
2023-02-24T12:12:26.982Z,7.68
2023-02-24T12:15:00.769Z,6.70
2023-02-24T12:17:48.075Z,6.85
2023-02-24T12:20:34.923Z,6.32
2023-02-24T12:23:23.082Z,6.35
2023-02-24T12:26:09.420Z,7.28
2023-02-24T12:28:42.522Z,6.70
2023-02-24T12:31:17.925Z,5.32
2023-02-24T12:33:51.752Z,5.72
2023-02-24T12:36:31.294Z,5.43
2023-02-24T12:39:01.496Z,5.80
2023-02-24T12:41:32.104Z,5.88
2023-02-24T12:44:01.600Z,5.97
2023-02-24T12:46:31.420Z,5.55
2023-02-24T12:49:09.362Z,5.25
2023-02-24T12:51:42.698Z,5.30
2023-02-24T12:54:17.941Z,4.55
2023-02-24T12:57:03.816Z,4.93
2023-02-24T12:59:32.102Z,5.38
2023-02-24T13:02:04.205Z,5.00
2023-02-24T13:04:39.861Z,4.80
2023-02-24T13:07:12.691Z,5.28
2023-02-24T13:09:42.581Z,5.22
2023-02-24T13:12:15.245Z,5.18
2023-02-24T13:14:42.388Z,4.90
2023-02-24T13:17:12.351Z,4.65
2023-02-24T13:19:40.050Z,4.47
2023-02-24T13:22:13.125Z,4.78
2023-02-24T13:24:41.424Z,4.60
2023-02-24T13:27:29.022Z,4.65
2023-02-24T13:29:57.580Z,4.90
2023-02-24T13:32:26.106Z,4.32
2023-02-24T13:34:53.310Z,3.72
2023-02-24T13:37:29.573Z,5.40
2023-02-24T13:39:56.609Z,4.95
2023-02-24T13:42:24.944Z,4.72
2023-02-24T13:45:04.184Z,4.15
2023-02-24T13:47:51.425Z,4.45
2023-02-24T13:50:21.704Z,3.92
2023-02-24T13:52:52.436Z,5.85
2023-02-24T13:55:19.466Z,4.78
2023-02-24T13:57:52.505Z,4.40
2023-02-24T14:00:22.325Z,4.43
2023-02-24T14:02:52.783Z,4.03
2023-02-24T14:05:21.114Z,4.15
2023-02-24T14:07:48.664Z,3.47
2023-02-24T14:10:19.560Z,3.70
2023-02-24T14:12:47.127Z,3.92
2023-02-24T14:15:14.791Z,3.80
2023-02-24T14:17:42.058Z,3.53
2023-02-24T14:20:14.229Z,3.75
2023-02-24T14:22:45.037Z,3.97
2023-02-24T14:25:12.309Z,3.70
2023-02-24T14:27:39.465Z,3.50
2023-02-24T14:30:07.448Z,3.55
2023-02-24T14:32:34.665Z,3.50
2023-02-24T14:35:01.840Z,3.85
2023-02-24T14:37:29.489Z,3.83
2023-02-24T14:39:57.525Z,4.10
2023-02-24T14:42:24.716Z,3.67
2023-02-24T14:44:53.005Z,3.30
2023-02-24T14:47:20.909Z,3.40
2023-02-24T14:49:54.143Z,3.92
2023-02-24T14:52:23.955Z,3.30
2023-02-24T14:54:59.890Z,3.47
2023-02-24T14:57:27.620Z,4.32
2023-02-24T15:00:11.689Z,3.13
2023-02-24T15:02:40.639Z,3.38
2023-02-24T15:05:07.834Z,3.17
2023-02-24T15:07:34.943Z,3.50
2023-02-24T15:10:02.185Z,3.58
2023-02-24T15:12:35.496Z,3.38
2023-02-24T15:15:06.550Z,3.10
2023-02-24T15:17:33.581Z,3.28
2023-02-24T15:20:00.685Z,2.95
2023-02-24T15:22:28.842Z,2.60
2023-02-24T15:25:14.689Z,3.08
2023-02-24T15:27:55.213Z,2.97
2023-02-24T15:30:26.021Z,3.42
2023-02-24T15:33:00.017Z,4.22
2023-02-24T15:35:27.105Z,3.28
2023-02-24T15:37:54.796Z,3.38
2023-02-24T15:40:22.734Z,2.80
2023-02-24T15:43:00.343Z,3.28
2023-02-24T15:45:31.680Z,3.15
2023-02-24T15:47:59.693Z,2.97
2023-02-24T15:50:26.969Z,3.55
2023-02-24T15:52:54.098Z,4.03
2023-02-24T15:55:21.885Z,3.70
2023-02-24T15:57:49.026Z,4.60
2023-02-24T16:00:17.790Z,3.80
2023-02-24T16:02:45.563Z,3.97
2023-02-24T16:05:15.688Z,3.60
2023-02-24T16:07:43.997Z,4.30
2023-02-24T16:10:24.097Z,4.13
2023-02-24T16:12:52.387Z,4.13
2023-02-24T16:15:20.937Z,4.72
2023-02-24T16:17:47.962Z,5.03
2023-02-24T16:20:41.711Z,4.15
2023-02-24T16:23:08.805Z,3.85
2023-02-24T16:25:38.987Z,5.15
2023-02-24T16:28:06.050Z,5.00
2023-02-24T16:30:35.332Z,4.63
2023-02-24T16:33:02.766Z,5.00
2023-02-24T16:35:29.997Z,4.38
2023-02-24T16:37:57.042Z,5.22
2023-02-24T16:40:25.193Z,5.00
2023-02-24T16:42:52.787Z,4.75
2023-02-24T16:45:22.869Z,5.63
2023-02-24T16:47:50.029Z,5.72
2023-02-24T16:50:21.362Z,6.18
2023-02-24T16:52:48.469Z,5.95
2023-02-24T16:55:15.547Z,5.47
2023-02-24T16:57:42.647Z,6.60
2023-02-24T17:00:10.304Z,6.20
2023-02-24T17:02:37.394Z,6.63
2023-02-24T17:05:04.526Z,6.35
2023-02-24T17:07:31.625Z,6.40
2023-02-24T17:09:58.731Z,6.63
2023-02-24T17:12:25.780Z,5.53
2023-02-24T17:14:52.932Z,6.57
2023-02-24T17:17:20.759Z,6.70
2023-02-24T17:19:47.838Z,6.72
2023-02-24T17:22:14.910Z,6.35
2023-02-24T17:24:41.969Z,5.75
2023-02-24T17:27:09.383Z,6.78
2023-02-24T17:29:36.421Z,6.63
2023-02-24T17:32:03.547Z,6.70
2023-02-24T17:34:30.651Z,6.65
2023-02-24T17:36:57.721Z,6.95
2023-02-24T17:39:24.762Z,7.25
2023-02-24T17:41:51.820Z,6.78
2023-02-24T17:44:18.917Z,6.80
2023-02-24T17:46:46.029Z,7.00
2023-02-24T17:49:13.077Z,10.38
2023-02-24T17:51:40.168Z,7.43
2023-02-24T17:54:08.385Z,8.18
2023-02-24T17:56:35.488Z,7.70
2023-02-24T17:59:02.624Z,7.07
2023-02-24T18:01:29.799Z,7.07
2023-02-24T18:03:59.635Z,8.32
2023-02-24T18:06:26.741Z,7.55
2023-02-24T18:08:55.010Z,8.18
2023-02-24T18:11:22.126Z,7.93
2023-02-24T18:13:52.497Z,7.47
2023-02-24T18:16:19.919Z,7.22
2023-02-24T18:18:47.282Z,7.40
2023-02-24T18:21:14.377Z,7.35
2023-02-24T18:23:41.507Z,7.95
2023-02-24T18:26:09.127Z,8.73
2023-02-24T18:28:36.299Z,7.47
2023-02-24T18:31:09.868Z,8.18
2023-02-24T18:33:37.218Z,9.13
2023-02-24T18:36:04.513Z,8.27
2023-02-24T18:38:31.629Z,16.92
2023-02-24T18:41:05.596Z,9.00
2023-02-24T18:43:32.801Z,9.43
2023-02-24T18:46:00.595Z,10.15
2023-02-24T18:48:28.107Z,10.57
2023-02-24T18:50:55.365Z,11.77
2023-02-24T18:53:22.622Z,11.13
2023-02-24T18:55:49.712Z,11.18
2023-02-24T18:58:17.143Z,11.70
2023-02-24T19:00:45.299Z,11.85
2023-02-24T19:03:12.412Z,11.85
2023-02-24T19:05:39.616Z,11.82
2023-02-24T19:08:06.884Z,10.73
2023-02-24T19:10:34.000Z,12.20
2023-02-24T19:13:01.092Z,11.43
2023-02-24T19:15:28.128Z,11.57
2023-02-24T19:17:55.359Z,12.63
2023-02-24T19:20:22.530Z,12.00
2023-02-24T19:22:51.621Z,11.82
2023-02-24T19:25:18.864Z,12.23
2023-02-24T19:27:47.676Z,12.65
2023-02-24T19:30:14.941Z,12.60
2023-02-24T19:32:42.193Z,13.50
2023-02-24T19:35:09.982Z,13.27
2023-02-24T19:37:37.141Z,13.35
2023-02-24T19:40:04.353Z,12.90
2023-02-24T19:42:31.401Z,13.15
2023-02-24T19:44:58.447Z,14.40
2023-02-24T19:47:25.546Z,14.73
2023-02-24T19:49:52.645Z,13.40
2023-02-24T19:52:19.696Z,14.68
2023-02-24T19:54:46.767Z,14.35
2023-02-24T19:57:14.011Z,15.02
2023-02-24T19:59:41.213Z,13.30
2023-02-24T20:02:08.316Z,14.52
2023-02-24T20:04:35.641Z,14.63
2023-02-24T20:07:02.682Z,14.00
2023-02-24T20:09:29.785Z,14.02
2023-02-24T20:11:58.927Z,14.93
2023-02-24T20:14:27.465Z,14.05
2023-02-24T20:16:54.572Z,15.18
2023-02-24T20:19:21.736Z,13.48
2023-02-24T20:21:48.882Z,13.80
2023-02-24T20:24:16.353Z,14.38
2023-02-24T20:26:46.223Z,14.20
2023-02-24T20:29:13.645Z,14.50
2023-02-24T20:31:41.290Z,12.90
2023-02-24T20:34:10.432Z,12.73
2023-02-24T20:36:37.509Z,13.13
2023-02-24T20:39:06.562Z,12.15
2023-02-24T20:41:33.845Z,12.60
2023-02-24T20:44:00.930Z,11.48
2023-02-24T20:46:28.995Z,12.05
2023-02-24T20:48:59.816Z,12.30
2023-02-24T20:51:27.028Z,11.75
2023-02-24T20:53:58.155Z,12.13
2023-02-24T20:56:25.832Z,15.60
2023-02-24T20:58:53.592Z,12.15
2023-02-24T21:01:21.063Z,10.95
2023-02-24T21:03:48.310Z,11.00
2023-02-24T21:06:15.973Z,10.63
2023-02-24T21:08:45.837Z,11.57
2023-02-24T21:11:13.498Z,10.23
2023-02-24T21:13:41.430Z,10.40
2023-02-24T21:16:09.373Z,10.65
2023-02-24T21:18:36.964Z,10.43
2023-02-24T21:21:04.118Z,9.93
2023-02-24T21:23:32.653Z,10.77
2023-02-24T21:25:59.743Z,11.05
2023-02-24T21:28:27.005Z,11.80
2023-02-24T21:30:54.241Z,11.07
2023-02-24T21:33:21.301Z,10.70
2023-02-24T21:36:03.057Z,12.10
2023-02-24T21:38:34.094Z,11.68
2023-02-24T21:41:05.043Z,10.77
2023-02-24T21:43:32.324Z,10.20
2023-02-24T21:46:06.119Z,9.85
2023-02-24T21:48:33.750Z,9.98
2023-02-24T21:51:04.677Z,10.00
2023-02-24T21:53:35.580Z,10.43
2023-02-24T21:56:03.712Z,10.00
2023-02-24T21:58:31.385Z,8.93
2023-02-24T22:00:58.562Z,9.05
2023-02-24T22:03:25.676Z,8.05
2023-02-24T22:05:53.675Z,8.02
2023-02-24T22:08:20.851Z,6.85
2023-02-24T22:10:49.556Z,6.10
2023-02-24T22:13:16.651Z,5.90
2023-02-24T22:15:43.703Z,4.93
2023-02-24T22:18:10.803Z,5.07
2023-02-24T22:20:38.399Z,3.80
2023-02-24T22:23:05.428Z,3.42
2023-02-24T22:25:32.473Z,3.67
2023-02-24T22:27:59.572Z,3.38
2023-02-24T22:30:26.993Z,2.50
2023-02-24T22:32:54.091Z,2.55
2023-02-24T22:35:21.152Z,2.55
2023-02-24T22:37:48.238Z,2.47
2023-02-24T22:40:15.312Z,2.65
2023-02-24T22:42:42.537Z,2.67
2023-02-24T22:45:09.874Z,2.70
2023-02-24T22:47:36.967Z,2.08
2023-02-24T22:50:04.055Z,2.60
2023-02-24T22:52:31.097Z,2.20
2023-02-24T22:54:58.130Z,1.90
2023-02-24T22:57:25.177Z,1.90
2023-02-24T22:59:52.222Z,2.05
2023-02-24T23:02:19.266Z,2.55
2023-02-24T23:04:46.293Z,2.08
2023-02-24T23:07:13.389Z,2.55
2023-02-24T23:09:40.437Z,2.55
2023-02-24T23:12:11.640Z,2.00
2023-02-24T23:14:38.807Z,2.28
2023-02-24T23:17:05.871Z,2.05
2023-02-24T23:19:33.965Z,2.13
2023-02-24T23:22:01.101Z,1.58
2023-02-24T23:24:28.344Z,2.53
2023-02-24T23:26:57.513Z,2.20
2023-02-24T23:29:24.798Z,2.53
2023-02-24T23:31:52.328Z,2.60
2023-02-24T23:34:19.663Z,2.60
2023-02-24T23:36:47.101Z,2.55
2023-02-24T23:39:15.234Z,1.92
2023-02-24T23:41:42.438Z,2.45
2023-02-24T23:44:09.619Z,3.00
2023-02-24T23:46:36.938Z,3.45
2023-02-24T23:49:04.057Z,3.00
2023-02-24T23:51:47.102Z,3.13
2023-02-24T23:54:15.486Z,3.00
2023-02-24T23:56:42.598Z,2.70
2023-02-24T23:59:09.735Z,3.10
